Terminal Aerodrome Forecast
Issued by NWS

Home | Current Version | Previous Version | Text Only | Print | Product List | Glossary On
Versions: 1 2 3 4 5 6 7 8 9 10 11 12 13 14 15 16 17
000
FTUS43 KEAX 231700
TAFMKC
TAF
KMKC 231721Z 2318/2418 17004KT 5SM BR VCSH SCT012 OVC025
      TEMPO 2318/2322 BKN012 OVC025
     FM232300 33012G20KT 6SM -RA BR OVC015
     FM240500 33020G30KT 6SM -SHRA OVC025
     FM241200 31014G20KT P6SM BKN030=

USA.gov is the U.S. government's official web portal to all federal, state and local government web resources and services.